Alverda, Pennsylvania
Current Conditions -  °F | °C
As of 5:15 AM on Saturday 22 Nov 2014 (Local Time) from KIDI Reporting Station
Clear Clear  
Wind Chill: 14°   Ceiling: Unl
Heat Index: 14°   Visibility: 10mi
Dew Point:   Wind: 3mph
Humidity: 79%   Direction: 110°ESE
Pressure: 30.39"   Gusts: NA
Location:  40.63°N, 78.86°W
Report Text: KIDI 221015Z AUTO 11003KT 10SM CLR M10/M13 A3039 RMK A01
Loading
Personal Weather Stations






























Interactive Weather Map New forecast layout! Learn more

10-Day Weather Forecast

Advertisements
Track Severe Weather on mobile